sensor_id;sensor_type;location;lat;lon;timestamp;pressure;altitude;pressure_sealevel;temperature;humidity
34979;BME280;21185;50.978;13.720;2023-06-04T00:04:17;98716.53;;;14.39;39.41
34979;BME280;21185;50.978;13.720;2023-06-04T00:09:18;98721.66;;;14.32;39.68
34979;BME280;21185;50.978;13.720;2023-06-04T00:14:21;98715.31;;;14.26;39.85
34979;BME280;21185;50.978;13.720;2023-06-04T00:19:23;98714.84;;;14.23;39.71
34979;BME280;21185;50.978;13.720;2023-06-04T00:24:24;98708.19;;;14.20;39.71
34979;BME280;21185;50.978;13.720;2023-06-04T00:29:26;98702.16;;;14.20;39.49
34979;BME280;21185;50.978;13.720;2023-06-04T00:34:31;98705.94;;;14.17;39.82
34979;BME280;21185;50.978;13.720;2023-06-04T00:39:33;98701.69;;;14.16;39.70
34979;BME280;21185;50.978;13.720;2023-06-04T00:44:36;98685.41;;;14.14;39.53
34979;BME280;21185;50.978;13.720;2023-06-04T00:49:38;98681.16;;;14.13;39.57
34979;BME280;21185;50.978;13.720;2023-06-04T00:54:40;98689.50;;;14.09;39.71
34979;BME280;21185;50.978;13.720;2023-06-04T00:59:43;98689.88;;;14.06;39.62
34979;BME280;21185;50.978;13.720;2023-06-04T01:10:25;98693.00;;;14.01;39.73
34979;BME280;21185;50.978;13.720;2023-06-04T01:15:27;98689.63;;;13.92;39.76
34979;BME280;21185;50.978;13.720;2023-06-04T01:20:36;98680.69;;;13.87;40.12
34979;BME280;21185;50.978;13.720;2023-06-04T01:25:41;98675.81;;;13.84;39.91
34979;BME280;21185;50.978;13.720;2023-06-04T01:30:46;98681.38;;;13.81;40.25
34979;BME280;21185;50.978;13.720;2023-06-04T01:35:49;98674.91;;;13.77;40.14
34979;BME280;21185;50.978;13.720;2023-06-04T01:40:51;98686.47;;;13.74;40.05
34979;BME280;21185;50.978;13.720;2023-06-04T01:46:00;98681.59;;;13.71;40.18
34979;BME280;21185;50.978;13.720;2023-06-04T01:51:02;98677.91;;;13.66;40.02
34979;BME280;21185;50.978;13.720;2023-06-04T01:56:05;98684.44;;;13.61;40.19
34979;BME280;21185;50.978;13.720;2023-06-04T02:01:07;98682.03;;;13.52;40.21
34979;BME280;21185;50.978;13.720;2023-06-04T02:06:09;98686.31;;;13.45;40.43
34979;BME280;21185;50.978;13.720;2023-06-04T02:11:11;98682.09;;;13.44;40.42
34979;BME280;21185;50.978;13.720;2023-06-04T02:16:13;98683.88;;;13.43;40.63
34979;BME280;21185;50.978;13.720;2023-06-04T02:21:16;98686.00;;;13.40;40.80
34979;BME280;21185;50.978;13.720;2023-06-04T02:26:18;98679.34;;;13.37;40.74
34979;BME280;21185;50.978;13.720;2023-06-04T02:31:20;98684.88;;;13.34;40.77
34979;BME280;21185;50.978;13.720;2023-06-04T02:36:23;98685.06;;;13.33;40.51
34979;BME280;21185;50.978;13.720;2023-06-04T02:41:25;98689.16;;;13.27;40.87
34979;BME280;21185;50.978;13.720;2023-06-04T02:46:27;98691.63;;;13.20;41.05
34979;BME280;21185;50.978;13.720;2023-06-04T02:51:29;98685.94;;;13.17;41.32
34979;BME280;21185;50.978;13.720;2023-06-04T02:56:31;98693.25;;;13.13;41.21
34979;BME280;21185;50.978;13.720;2023-06-04T03:01:33;98679.75;;;13.10;41.26
34979;BME280;21185;50.978;13.720;2023-06-04T03:06:36;98681.69;;;13.08;41.37
34979;BME280;21185;50.978;13.720;2023-06-04T03:11:41;98690.66;;;13.05;41.69
34979;BME280;21185;50.978;13.720;2023-06-04T03:16:43;98695.06;;;13.05;41.47
34979;BME280;21185;50.978;13.720;2023-06-04T03:21:46;98697.50;;;13.06;41.38
34979;BME280;21185;50.978;13.720;2023-06-04T03:26:52;98700.75;;;13.08;41.56
34979;BME280;21185;50.978;13.720;2023-06-04T03:31:54;98704.16;;;13.09;41.94
34979;BME280;21185;50.978;13.720;2023-06-04T03:36:57;98696.03;;;13.12;41.87
34979;BME280;21185;50.978;13.720;2023-06-04T03:41:59;98699.28;;;13.14;41.74
34979;BME280;21185;50.978;13.720;2023-06-04T03:47:03;98709.22;;;13.18;41.99
34979;BME280;21185;50.978;13.720;2023-06-04T03:52:07;98712.31;;;13.22;42.02
34979;BME280;21185;50.978;13.720;2023-06-04T03:57:11;98709.03;;;13.28;42.50
34979;BME280;21185;50.978;13.720;2023-06-04T04:02:13;98711.13;;;13.33;42.65
34979;BME280;21185;50.978;13.720;2023-06-04T04:07:16;98720.72;;;13.40;42.88
34979;BME280;21185;50.978;13.720;2023-06-04T04:12:20;98717.41;;;13.46;42.89
34979;BME280;21185;50.978;13.720;2023-06-04T04:17:24;98725.56;;;13.51;43.04
34979;BME280;21185;50.978;13.720;2023-06-04T04:22:28;98718.66;;;13.58;43.42
34979;BME280;21185;50.978;13.720;2023-06-04T04:27:30;98712.44;;;13.68;43.34
34979;BME280;21185;50.978;13.720;2023-06-04T04:32:33;98712.38;;;13.76;43.44
34979;BME280;21185;50.978;13.720;2023-06-04T04:37:35;98716.56;;;13.85;43.56
34979;BME280;21185;50.978;13.720;2023-06-04T04:42:42;98714.56;;;13.95;43.64
34979;BME280;21185;50.978;13.720;2023-06-04T04:47:46;98714.97;;;14.07;43.62
34979;BME280;21185;50.978;13.720;2023-06-04T04:52:49;98719.63;;;14.19;43.57
34979;BME280;21185;50.978;13.720;2023-06-04T04:57:52;98721.19;;;14.29;43.36
34979;BME280;21185;50.978;13.720;2023-06-04T05:02:56;98717.53;;;14.38;43.29
34979;BME280;21185;50.978;13.720;2023-06-04T05:07:58;98722.00;;;14.52;43.37
34979;BME280;21185;50.978;13.720;2023-06-04T05:13:06;98725.81;;;14.64;43.45
34979;BME280;21185;50.978;13.720;2023-06-04T05:18:18;98729.97;;;14.73;43.66
34979;BME280;21185;50.978;13.720;2023-06-04T05:23:27;98726.66;;;14.79;44.04
34979;BME280;21185;50.978;13.720;2023-06-04T05:28:30;98725.59;;;14.88;44.13
34979;BME280;21185;50.978;13.720;2023-06-04T05:33:35;98728.75;;;14.99;44.53
34979;BME280;21185;50.978;13.720;2023-06-04T05:38:42;98740.22;;;15.12;44.57
34979;BME280;21185;50.978;13.720;2023-06-04T05:43:47;98743.38;;;15.22;44.57
34979;BME280;21185;50.978;13.720;2023-06-04T05:49:00;98742.91;;;15.34;44.40
34979;BME280;21185;50.978;13.720;2023-06-04T05:54:03;98734.63;;;15.45;44.10
34979;BME280;21185;50.978;13.720;2023-06-04T05:59:09;98734.41;;;15.61;43.96
34979;BME280;21185;50.978;13.720;2023-06-04T06:04:11;98744.22;;;15.74;44.03
34979;BME280;21185;50.978;13.720;2023-06-04T06:09:15;98739.78;;;15.89;43.94
34979;BME280;21185;50.978;13.720;2023-06-04T06:14:21;98744.97;;;16.04;44.24
34979;BME280;21185;50.978;13.720;2023-06-04T06:19:26;98750.16;;;16.18;44.38
34979;BME280;21185;50.978;13.720;2023-06-04T06:24:29;98752.53;;;16.35;44.78
34979;BME280;21185;50.978;13.720;2023-06-04T06:29:32;98752.03;;;16.46;44.93
34979;BME280;21185;50.978;13.720;2023-06-04T06:34:35;98759.63;;;16.62;45.27
34979;BME280;21185;50.978;13.720;2023-06-04T06:39:38;98765.19;;;16.74;45.47
34979;BME280;21185;50.978;13.720;2023-06-04T06:44:41;98762.63;;;16.80;45.70
34979;BME280;21185;50.978;13.720;2023-06-04T06:49:47;98775.22;;;16.92;45.85
34979;BME280;21185;50.978;13.720;2023-06-04T06:54:49;98769.81;;;17.00;45.84
34979;BME280;21185;50.978;13.720;2023-06-04T06:59:51;98778.59;;;17.13;46.00
34979;BME280;21185;50.978;13.720;2023-06-04T07:04:55;98779.88;;;17.24;45.99
34979;BME280;21185;50.978;13.720;2023-06-04T07:09:57;98787.44;;;17.40;45.66
34979;BME280;21185;50.978;13.720;2023-06-04T07:14:59;98784.88;;;17.54;45.29
34979;BME280;21185;50.978;13.720;2023-06-04T07:20:01;98785.34;;;17.64;45.43
34979;BME280;21185;50.978;13.720;2023-06-04T07:25:06;98782.56;;;17.72;44.75
34979;BME280;21185;50.978;13.720;2023-06-04T07:30:09;98778.59;;;17.83;44.69
34979;BME280;21185;50.978;13.720;2023-06-04T07:35:11;98782.69;;;17.98;44.37
34979;BME280;21185;50.978;13.720;2023-06-04T07:40:14;98785.53;;;18.10;43.59
34979;BME280;21185;50.978;13.720;2023-06-04T07:45:17;98789.00;;;18.24;43.33
34979;BME280;21185;50.978;13.720;2023-06-04T07:50:19;98777.13;;;18.41;42.84
34979;BME280;21185;50.978;13.720;2023-06-04T07:55:22;98779.97;;;18.46;42.55
34979;BME280;21185;50.978;13.720;2023-06-04T08:00:24;98782.41;;;18.54;42.08
34979;BME280;21185;50.978;13.720;2023-06-04T08:05:27;98786.84;;;18.60;41.75
34979;BME280;21185;50.978;13.720;2023-06-04T08:10:29;98784.06;;;18.68;41.20
34979;BME280;21185;50.978;13.720;2023-06-04T08:15:31;98775.16;;;18.83;41.28
34979;BME280;21185;50.978;13.720;2023-06-04T08:20:33;98778.19;;;18.93;40.74
34979;BME280;21185;50.978;13.720;2023-06-04T08:25:36;98775.94;;;19.09;40.42
34979;BME280;21185;50.978;13.720;2023-06-04T08:30:38;98770.66;;;19.29;40.32
34979;BME280;21185;50.978;13.720;2023-06-04T08:35:41;98774.28;;;19.41;40.31
34979;BME280;21185;50.978;13.720;2023-06-04T08:40:43;98769.00;;;19.55;40.19
34979;BME280;21185;50.978;13.720;2023-06-04T08:45:51;98772.59;;;19.67;40.06
34979;BME280;21185;50.978;13.720;2023-06-04T08:51:02;98776.59;;;19.83;39.25
34979;BME280;21185;50.978;13.720;2023-06-04T08:56:05;98770.69;;;19.87;39.23
34979;BME280;21185;50.978;13.720;2023-06-04T09:01:08;98766.38;;;19.99;38.67
34979;BME280;21185;50.978;13.720;2023-06-04T09:06:12;98768.94;;;20.13;38.47
34979;BME280;21185;50.978;13.720;2023-06-04T09:11:15;98764.63;;;20.25;38.15
34979;BME280;21185;50.978;13.720;2023-06-04T09:16:18;98770.03;;;20.36;38.25
34979;BME280;21185;50.978;13.720;2023-06-04T09:21:20;98780.72;;;20.48;37.74
34979;BME280;21185;50.978;13.720;2023-06-04T09:26:23;98778.69;;;20.50;37.48
34979;BME280;21185;50.978;13.720;2023-06-04T09:31:26;98766.69;;;20.54;37.26
34979;BME280;21185;50.978;13.720;2023-06-04T09:36:35;98776.31;;;20.67;36.83
34979;BME280;21185;50.978;13.720;2023-06-04T09:41:37;98772.63;;;20.75;36.62
34979;BME280;21185;50.978;13.720;2023-06-04T09:46:56;98763.16;;;20.85;36.23
34979;BME280;21185;50.978;13.720;2023-06-04T09:51:58;98764.56;;;20.88;36.57
34979;BME280;21185;50.978;13.720;2023-06-04T09:57:00;98764.28;;;20.96;36.30
34979;BME280;21185;50.978;13.720;2023-06-04T10:02:03;98761.81;;;21.01;35.88
34979;BME280;21185;50.978;13.720;2023-06-04T10:07:08;98761.31;;;21.11;35.80
34979;BME280;21185;50.978;13.720;2023-06-04T10:12:14;98760.13;;;21.07;35.71
34979;BME280;21185;50.978;13.720;2023-06-04T10:17:23;98759.47;;;21.11;35.11
34979;BME280;21185;50.978;13.720;2023-06-04T10:22:29;98758.16;;;21.20;35.36
34979;BME280;21185;50.978;13.720;2023-06-04T10:27:32;98754.50;;;21.21;35.21
34979;BME280;21185;50.978;13.720;2023-06-04T10:32:34;98754.25;;;21.29;35.25
34979;BME280;21185;50.978;13.720;2023-06-04T10:37:36;98760.47;;;21.35;34.93
34979;BME280;21185;50.978;13.720;2023-06-04T10:42:42;98753.97;;;21.38;34.08
34979;BME280;21185;50.978;13.720;2023-06-04T10:47:45;98749.84;;;21.42;33.85
34979;BME280;21185;50.978;13.720;2023-06-04T10:52:55;98752.19;;;21.50;33.38
34979;BME280;21185;50.978;13.720;2023-06-04T10:58:00;98752.63;;;21.47;33.38
34979;BME280;21185;50.978;13.720;2023-06-04T11:03:09;98754.19;;;21.54;33.06
34979;BME280;21185;50.978;13.720;2023-06-04T11:08:13;98749.03;;;21.59;32.97
34979;BME280;21185;50.978;13.720;2023-06-04T11:13:23;98747.13;;;21.66;33.14
34979;BME280;21185;50.978;13.720;2023-06-04T11:18:26;98754.69;;;21.63;32.90
34979;BME280;21185;50.978;13.720;2023-06-04T11:23:28;98744.03;;;21.70;32.79
34979;BME280;21185;50.978;13.720;2023-06-04T11:28:30;98739.69;;;21.75;32.50
34979;BME280;21185;50.978;13.720;2023-06-04T11:33:45;98732.38;;;21.77;32.15
34979;BME280;21185;50.978;13.720;2023-06-04T11:38:58;98733.84;;;21.73;32.50
34979;BME280;21185;50.978;13.720;2023-06-04T11:44:24;98743.16;;;21.76;32.04
34979;BME280;21185;50.978;13.720;2023-06-04T11:49:30;98739.63;;;21.82;32.59
34979;BME280;21185;50.978;13.720;2023-06-04T11:54:33;98741.22;;;21.83;32.64
34979;BME280;21185;50.978;13.720;2023-06-04T11:59:40;98735.13;;;21.82;32.22
34979;BME280;21185;50.978;13.720;2023-06-04T12:04:42;98736.66;;;21.90;32.25
34979;BME280;21185;50.978;13.720;2023-06-04T12:09:45;98734.97;;;21.95;32.29
34979;BME280;21185;50.978;13.720;2023-06-04T12:14:47;98738.63;;;21.94;31.88
34979;BME280;21185;50.978;13.720;2023-06-04T12:19:52;98735.09;;;22.01;31.89
34979;BME280;21185;50.978;13.720;2023-06-04T12:24:56;98737.69;;;22.07;32.17
34979;BME280;21185;50.978;13.720;2023-06-04T12:30:04;98741.59;;;22.05;31.70
34979;BME280;21185;50.978;13.720;2023-06-04T12:35:09;98734.59;;;21.92;31.31
34979;BME280;21185;50.978;13.720;2023-06-04T12:40:11;98719.13;;;21.95;31.37
34979;BME280;21185;50.978;13.720;2023-06-04T12:45:13;98730.63;;;22.01;31.48
34979;BME280;21185;50.978;13.720;2023-06-04T12:50:16;98733.19;;;22.08;31.76
34979;BME280;21185;50.978;13.720;2023-06-04T12:55:23;98725.16;;;22.03;31.45
34979;BME280;21185;50.978;13.720;2023-06-04T13:00:28;98725.16;;;22.03;31.23
34979;BME280;21185;50.978;13.720;2023-06-04T13:05:37;98722.28;;;22.04;31.49
34979;BME280;21185;50.978;13.720;2023-06-04T13:10:39;98722.06;;;22.06;31.14
34979;BME280;21185;50.978;13.720;2023-06-04T13:15:42;98717.34;;;22.08;31.30
34979;BME280;21185;50.978;13.720;2023-06-04T13:20:44;98718.97;;;22.09;31.11
34979;BME280;21185;50.978;13.720;2023-06-04T13:25:46;98714.84;;;22.13;31.11
34979;BME280;21185;50.978;13.720;2023-06-04T13:30:48;98708.38;;;22.09;31.19
34979;BME280;21185;50.978;13.720;2023-06-04T13:36:02;98713.34;;;22.17;31.62
34979;BME280;21185;50.978;13.720;2023-06-04T13:41:09;98707.75;;;22.25;31.23
34979;BME280;21185;50.978;13.720;2023-06-04T13:46:14;98708.09;;;22.28;30.92
34979;BME280;21185;50.978;13.720;2023-06-04T13:51:17;98698.31;;;22.29;30.74
34979;BME280;21185;50.978;13.720;2023-06-04T13:56:21;98707.28;;;22.28;30.70
34979;BME280;21185;50.978;13.720;2023-06-04T14:01:25;98692.94;;;22.36;30.76
34979;BME280;21185;50.978;13.720;2023-06-04T14:06:28;98690.75;;;22.44;30.58
34979;BME280;21185;50.978;13.720;2023-06-04T14:11:31;98681.56;;;22.58;30.76
34979;BME280;21185;50.978;13.720;2023-06-04T14:16:34;98686.53;;;22.67;30.72
34979;BME280;21185;50.978;13.720;2023-06-04T14:21:43;98688.25;;;22.73;30.59
34979;BME280;21185;50.978;13.720;2023-06-04T14:26:48;98681.47;;;22.77;30.65
34979;BME280;21185;50.978;13.720;2023-06-04T14:31:50;98682.03;;;22.79;30.68
34979;BME280;21185;50.978;13.720;2023-06-04T14:36:52;98680.06;;;22.74;30.58
34979;BME280;21185;50.978;13.720;2023-06-04T14:41:56;98672.72;;;22.76;30.47
34979;BME280;21185;50.978;13.720;2023-06-04T14:46:58;98662.38;;;22.86;30.08
34979;BME280;21185;50.978;13.720;2023-06-04T14:52:01;98670.19;;;22.70;29.86
34979;BME280;21185;50.978;13.720;2023-06-04T14:57:12;98676.75;;;22.55;29.77
34979;BME280;21185;50.978;13.720;2023-06-04T15:02:16;98669.72;;;22.49;29.47
34979;BME280;21185;50.978;13.720;2023-06-04T15:07:22;98655.00;;;22.42;29.63
34979;BME280;21185;50.978;13.720;2023-06-04T15:12:24;98666.50;;;22.36;29.58
34979;BME280;21185;50.978;13.720;2023-06-04T15:17:26;98663.72;;;22.30;29.48
34979;BME280;21185;50.978;13.720;2023-06-04T15:22:29;98662.22;;;22.23;29.30
34979;BME280;21185;50.978;13.720;2023-06-04T15:27:32;98668.66;;;22.15;28.89
34979;BME280;21185;50.978;13.720;2023-06-04T15:32:34;98669.31;;;22.11;28.79
34979;BME280;21185;50.978;13.720;2023-06-04T15:37:37;98674.31;;;22.01;28.61
34979;BME280;21185;50.978;13.720;2023-06-04T15:42:39;98667.53;;;21.93;27.91
34979;BME280;21185;50.978;13.720;2023-06-04T15:47:41;98670.84;;;21.88;27.54
34979;BME280;21185;50.978;13.720;2023-06-04T15:52:44;98667.84;;;21.85;27.20
34979;BME280;21185;50.978;13.720;2023-06-04T15:57:47;98667.03;;;21.84;27.08
34979;BME280;21185;50.978;13.720;2023-06-04T16:02:49;98664.84;;;21.81;26.70
34979;BME280;21185;50.978;13.720;2023-06-04T16:07:52;98669.78;;;21.78;26.75
34979;BME280;21185;50.978;13.720;2023-06-04T16:12:54;98674.69;;;21.74;26.68
34979;BME280;21185;50.978;13.720;2023-06-04T16:17:56;98663.41;;;21.67;26.90
34979;BME280;21185;50.978;13.720;2023-06-04T16:22:59;98656.63;;;21.59;27.67
34979;BME280;21185;50.978;13.720;2023-06-04T16:28:01;98657.72;;;21.52;27.63
34979;BME280;21185;50.978;13.720;2023-06-04T16:33:05;98656.44;;;21.43;27.46
34979;BME280;21185;50.978;13.720;2023-06-04T16:38:08;98662.16;;;21.40;27.76
34979;BME280;21185;50.978;13.720;2023-06-04T16:43:10;98654.91;;;21.35;27.71
34979;BME280;21185;50.978;13.720;2023-06-04T16:48:25;98649.84;;;21.33;27.75
34979;BME280;21185;50.978;13.720;2023-06-04T16:53:27;98646.25;;;21.28;27.57
34979;BME280;21185;50.978;13.720;2023-06-04T16:58:31;98654.03;;;21.23;27.87
34979;BME280;21185;50.978;13.720;2023-06-04T17:03:36;98650.19;;;21.19;28.27
34979;BME280;21185;50.978;13.720;2023-06-04T17:08:39;98644.53;;;21.15;28.63
34979;BME280;21185;50.978;13.720;2023-06-04T17:13:41;98647.84;;;21.11;28.83
34979;BME280;21185;50.978;13.720;2023-06-04T17:18:43;98641.41;;;21.07;28.68
34979;BME280;21185;50.978;13.720;2023-06-04T17:23:45;98652.41;;;21.03;29.03
34979;BME280;21185;50.978;13.720;2023-06-04T17:28:50;98648.81;;;20.98;29.34
34979;BME280;21185;50.978;13.720;2023-06-04T17:33:52;98645.56;;;20.96;28.89
34979;BME280;21185;50.978;13.720;2023-06-04T17:38:54;98658.19;;;20.94;29.24
34979;BME280;21185;50.978;13.720;2023-06-04T17:43:56;98647.47;;;20.89;29.67
34979;BME280;21185;50.978;13.720;2023-06-04T17:48:59;98652.16;;;20.87;29.72
34979;BME280;21185;50.978;13.720;2023-06-04T17:54:01;98643.28;;;20.81;29.78
34979;BME280;21185;50.978;13.720;2023-06-04T17:59:04;98642.38;;;20.76;30.08
34979;BME280;21185;50.978;13.720;2023-06-04T18:04:07;98646.69;;;20.70;29.90
34979;BME280;21185;50.978;13.720;2023-06-04T18:09:09;98657.88;;;20.65;30.19
34979;BME280;21185;50.978;13.720;2023-06-04T18:14:11;98664.84;;;20.60;30.60
34979;BME280;21185;50.978;13.720;2023-06-04T18:19:13;98655.38;;;20.52;30.73
34979;BME280;21185;50.978;13.720;2023-06-04T18:24:22;98658.28;;;20.44;31.19
34979;BME280;21185;50.978;13.720;2023-06-04T18:29:24;98663.63;;;20.31;31.73
34979;BME280;21185;50.978;13.720;2023-06-04T18:34:26;98664.75;;;20.17;32.34
34979;BME280;21185;50.978;13.720;2023-06-04T18:39:30;98674.56;;;20.03;33.26
34979;BME280;21185;50.978;13.720;2023-06-04T18:44:32;98672.41;;;19.93;33.48
34979;BME280;21185;50.978;13.720;2023-06-04T18:49:41;98670.66;;;19.81;33.93
34979;BME280;21185;50.978;13.720;2023-06-04T18:54:43;98666.28;;;19.68;34.55
34979;BME280;21185;50.978;13.720;2023-06-04T18:59:46;98675.44;;;19.59;34.81
34979;BME280;21185;50.978;13.720;2023-06-04T19:04:48;98668.78;;;19.50;35.08
34979;BME280;21185;50.978;13.720;2023-06-04T19:09:51;98678.72;;;19.41;35.65
34979;BME280;21185;50.978;13.720;2023-06-04T19:14:53;98678.16;;;19.32;35.91
34979;BME280;21185;50.978;13.720;2023-06-04T19:19:55;98682.84;;;19.24;36.00
34979;BME280;21185;50.978;13.720;2023-06-04T19:24:57;98693.78;;;19.14;36.30
34979;BME280;21185;50.978;13.720;2023-06-04T19:29:59;98689.56;;;19.06;36.36
34979;BME280;21185;50.978;13.720;2023-06-04T19:35:01;98696.66;;;18.99;36.31
34979;BME280;21185;50.978;13.720;2023-06-04T19:40:04;98697.09;;;18.90;36.79
34979;BME280;21185;50.978;13.720;2023-06-04T19:45:06;98710.44;;;18.82;36.67
34979;BME280;21185;50.978;13.720;2023-06-04T19:50:09;98712.47;;;18.73;36.69
34979;BME280;21185;50.978;13.720;2023-06-04T19:55:11;98709.25;;;18.64;36.99
34979;BME280;21185;50.978;13.720;2023-06-04T20:00:13;98719.94;;;18.56;37.24
34979;BME280;21185;50.978;13.720;2023-06-04T20:05:16;98721.75;;;18.49;37.43
34979;BME280;21185;50.978;13.720;2023-06-04T20:10:18;98728.22;;;18.40;37.69
34979;BME280;21185;50.978;13.720;2023-06-04T20:15:20;98723.16;;;18.32;37.77
34979;BME280;21185;50.978;13.720;2023-06-04T20:20:23;98733.03;;;18.23;38.04
34979;BME280;21185;50.978;13.720;2023-06-04T20:25:25;98737.28;;;18.18;38.08
34979;BME280;21185;50.978;13.720;2023-06-04T20:30:27;98734.63;;;18.11;38.29
34979;BME280;21185;50.978;13.720;2023-06-04T20:35:30;98739.25;;;18.02;38.46
34979;BME280;21185;50.978;13.720;2023-06-04T20:40:32;98741.88;;;17.96;38.62
34979;BME280;21185;50.978;13.720;2023-06-04T20:45:34;98745.09;;;17.91;38.43
34979;BME280;21185;50.978;13.720;2023-06-04T20:50:36;98750.13;;;17.86;38.59
34979;BME280;21185;50.978;13.720;2023-06-04T20:55:38;98756.78;;;17.82;38.50
34979;BME280;21185;50.978;13.720;2023-06-04T21:00:39;98749.69;;;17.76;38.69
34979;BME280;21185;50.978;13.720;2023-06-04T21:05:42;98757.94;;;17.73;38.85
34979;BME280;21185;50.978;13.720;2023-06-04T21:10:45;98752.28;;;17.69;38.81
34979;BME280;21185;50.978;13.720;2023-06-04T21:15:47;98763.16;;;17.66;38.53
34979;BME280;21185;50.978;13.720;2023-06-04T21:20:49;98762.72;;;17.63;38.98
34979;BME280;21185;50.978;13.720;2023-06-04T21:25:51;98776.00;;;17.55;39.11
34979;BME280;21185;50.978;13.720;2023-06-04T21:30:53;98774.38;;;17.54;38.74
34979;BME280;21185;50.978;13.720;2023-06-04T21:35:55;98764.28;;;17.51;38.83
34979;BME280;21185;50.978;13.720;2023-06-04T21:40:57;98763.03;;;17.46;38.79
34979;BME280;21185;50.978;13.720;2023-06-04T21:45:59;98759.81;;;17.44;38.73
34979;BME280;21185;50.978;13.720;2023-06-04T21:51:01;98771.06;;;17.38;38.38
34979;BME280;21185;50.978;13.720;2023-06-04T21:56:03;98765.41;;;17.35;38.50
34979;BME280;21185;50.978;13.720;2023-06-04T22:01:05;98772.03;;;17.31;38.37
34979;BME280;21185;50.978;13.720;2023-06-04T22:06:08;98771.81;;;17.26;38.36
34979;BME280;21185;50.978;13.720;2023-06-04T22:11:11;98769.75;;;17.21;38.25
34979;BME280;21185;50.978;13.720;2023-06-04T22:16:13;98772.78;;;17.18;38.38
34979;BME280;21185;50.978;13.720;2023-06-04T22:21:15;98770.09;;;17.11;38.32
34979;BME280;21185;50.978;13.720;2023-06-04T22:26:17;98771.28;;;17.09;38.41
34979;BME280;21185;50.978;13.720;2023-06-04T22:31:37;98773.31;;;17.07;38.13
34979;BME280;21185;50.978;13.720;2023-06-04T22:36:39;98763.38;;;17.02;38.12
34979;BME280;21185;50.978;13.720;2023-06-04T22:41:43;98764.56;;;17.00;38.16
34979;BME280;21185;50.978;13.720;2023-06-04T22:46:45;98765.16;;;16.95;38.15
34979;BME280;21185;50.978;13.720;2023-06-04T22:51:47;98756.25;;;16.90;38.12
34979;BME280;21185;50.978;13.720;2023-06-04T22:56:49;98766.28;;;16.86;38.29
34979;BME280;21185;50.978;13.720;2023-06-04T23:01:52;98759.00;;;16.81;38.08
34979;BME280;21185;50.978;13.720;2023-06-04T23:06:54;98750.91;;;16.76;38.21
34979;BME280;21185;50.978;13.720;2023-06-04T23:11:56;98751.09;;;16.75;38.32
34979;BME280;21185;50.978;13.720;2023-06-04T23:16:58;98748.66;;;16.73;38.26
34979;BME280;21185;50.978;13.720;2023-06-04T23:22:00;98755.09;;;16.71;38.21
34979;BME280;21185;50.978;13.720;2023-06-04T23:27:02;98750.41;;;16.66;38.33
34979;BME280;21185;50.978;13.720;2023-06-04T23:32:04;98758.63;;;16.63;38.24
34979;BME280;21185;50.978;13.720;2023-06-04T23:37:06;98747.72;;;16.60;38.19
34979;BME280;21185;50.978;13.720;2023-06-04T23:42:08;98757.56;;;16.58;37.98
34979;BME280;21185;50.978;13.720;2023-06-04T23:47:10;98750.28;;;16.53;38.57
34979;BME280;21185;50.978;13.720;2023-06-04T23:52:12;98753.03;;;16.45;38.80
34979;BME280;21185;50.978;13.720;2023-06-04T23:57:14;98737.44;;;16.37;39.19
